Time;durP1;ratioP1;P1;durP2;ratioP2;P2;SDS_P1;SDS_P2;PMS_P1;PMS_P2;Temp;Humidity;BMP_temperature;BMP_pressure;BME280_temperature;BME280_humidity;BME280_pressure;Samples;Min_cycle;Max_cycle;Signal;HPM_P1;HPM_P2
2021/06/24 00:01:35;;;;;;;33.60;26.42;;;;;;;19.37;79.26;99527.31;5114757;28;20162;-77
2021/06/24 00:04:01;;;;;;;29.88;26.48;;;;;;;19.38;79.31;99528.97;5080125;28;20099;-76
2021/06/24 00:06:27;;;;;;;33.50;27.85;;;;;;;19.39;79.05;99528.78;5096891;28;20039;-75
2021/06/24 00:08:53;;;;;;;31.67;26.92;;;;;;;19.47;78.81;99527.91;5115360;28;20130;-76
2021/06/24 00:11:19;;;;;;;39.88;29.10;;;;;;;19.50;78.58;99540.28;5114845;28;20044;-76
2021/06/24 00:13:44;;;;;;;33.20;28.70;;;;;;;19.51;78.65;99541.97;5096586;28;20510;-77
2021/06/24 00:16:10;;;;;;;37.15;28.95;;;;;;;19.47;78.69;99541.47;5096289;28;20051;-76
2021/06/24 00:18:36;;;;;;;34.08;28.58;;;;;;;19.59;78.26;99541.94;5096525;28;20043;-76
2021/06/24 00:21:03;;;;;;;33.35;26.20;;;;;;;19.66;77.57;99542.94;5114718;28;20474;-76
2021/06/24 00:23:29;;;;;;;32.20;26.63;;;;;;;19.75;77.37;99538.38;5096491;28;20096;-76
2021/06/24 00:25:55;;;;;;;28.40;25.05;;;;;;;19.80;76.92;99544.09;5079371;28;20209;-76
2021/06/24 00:28:26;;;;;;;29.63;24.67;;;;;;;19.84;76.83;99545.41;5114490;28;20047;-76
2021/06/24 00:30:54;;;;;;;28.48;24.85;;;;;;;19.96;76.81;99549.41;5096347;28;20043;-76
2021/06/24 00:33:20;;;;;;;28.40;25.53;;;;;;;20.00;76.04;99548.03;5096947;28;20099;-76
2021/06/24 00:35:46;;;;;;;28.20;25.27;;;;;;;20.04;75.69;99551.22;5114275;28;20278;-76
2021/06/24 00:38:12;;;;;;;28.70;24.88;;;;;;;20.07;75.74;99542.75;5096377;28;20047;-76
2021/06/24 00:40:39;;;;;;;35.88;25.20;;;;;;;20.12;75.50;99537.63;5095993;28;20490;-78
2021/06/24 00:43:09;;;;;;;26.85;23.95;;;;;;;20.16;75.23;99548.97;5114202;28;20036;-76
2021/06/24 00:45:35;;;;;;;26.75;23.95;;;;;;;20.20;75.30;99544.84;5096563;28;20047;-76
2021/06/24 00:48:02;;;;;;;24.42;21.90;;;;;;;20.29;75.16;99546.50;5114139;28;20130;-76
2021/06/24 00:50:28;;;;;;;27.95;23.88;;;;;;;20.34;74.71;99547.63;5114422;28;20104;-76
2021/06/24 00:52:56;;;;;;;24.55;21.90;;;;;;;20.36;74.28;99550.19;5095764;28;20043;-76
2021/06/24 00:55:41;;;;;;;25.83;23.00;;;;;;;20.15;74.86;99553.53;5095831;28;20047;-76
2021/06/24 00:58:08;;;;;;;25.67;22.52;;;;;;;20.04;74.85;99568.34;5096265;28;20081;-77
2021/06/24 01:00:36;;;;;;;25.77;22.77;;;;;;;19.94;75.13;99569.63;5114023;28;20088;-76
2021/06/24 01:03:02;;;;;;;28.58;23.98;;;;;;;19.89;75.65;99570.97;5095388;28;20085;-76
2021/06/24 01:05:28;;;;;;;26.20;23.35;;;;;;;19.91;75.38;99569.97;5113789;28;20160;-75
2021/06/24 01:07:54;;;;;;;29.02;23.70;;;;;;;20.04;75.22;99568.34;5095543;28;20051;-77
2021/06/24 01:10:25;;;;;;;26.02;23.23;;;;;;;20.13;74.85;99570.03;5079391;28;20043;-75
2021/06/24 01:12:52;;;;;;;27.80;22.90;;;;;;;20.18;74.19;99568.63;5095793;28;20126;-75
2021/06/24 01:15:18;;;;;;;27.02;23.08;;;;;;;20.21;74.51;99568.28;5078521;28;20134;-76
2021/06/24 01:17:46;;;;;;;25.83;22.05;;;;;;;20.21;74.08;99568.28;5095496;28;20565;-75
2021/06/24 01:20:13;;;;;;;27.20;22.45;;;;;;;20.22;74.14;99583.53;5095395;28;20557;-76
2021/06/24 01:22:39;;;;;;;31.83;22.90;;;;;;;20.21;74.11;99579.13;5095389;28;20194;-75
2021/06/24 01:25:06;;;;;;;27.52;22.25;;;;;;;20.19;74.09;99578.47;5113362;28;20467;-75
2021/06/24 01:27:33;;;;;;;30.58;21.92;;;;;;;20.23;73.75;99575.19;5113499;28;20078;-75
2021/06/24 01:29:59;;;;;;;28.65;22.42;;;;;;;20.17;74.25;99584.06;5095641;28;20126;-75
2021/06/24 01:32:28;;;;;;;28.38;21.95;;;;;;;20.28;73.58;99571.97;5094802;28;20460;-77
2021/06/24 01:34:54;;;;;;;26.65;23.50;;;;;;;20.14;73.75;99577.13;5061984;28;20402;-77
2021/06/24 01:37:21;;;;;;;33.05;24.02;;;;;;;20.17;73.69;99583.25;5078177;28;20043;-77
2021/06/24 01:39:47;;;;;;;27.67;23.50;;;;;;;20.26;73.78;99593.00;5062239;28;20104;-76
2021/06/24 01:42:16;;;;;;;32.08;24.95;;;;;;;20.12;73.59;99589.19;5095585;28;20035;-77
2021/06/24 01:44:42;;;;;;;33.60;26.95;;;;;;;20.15;73.84;99594.25;5095005;28;20137;-76
2021/06/24 01:47:09;;;;;;;32.92;27.67;;;;;;;20.21;73.99;99590.00;5095043;28;20495;-77
2021/06/24 01:49:36;;;;;;;41.15;31.25;;;;;;;20.19;73.48;99594.75;5078456;28;20043;-77
2021/06/24 01:52:02;;;;;;;38.53;29.67;;;;;;;20.22;73.88;99594.38;5112924;28;20053;-77
2021/06/24 01:54:28;;;;;;;39.75;32.20;;;;;;;20.32;73.80;99603.16;5094896;28;20039;-76
2021/06/24 01:56:54;;;;;;;47.35;33.83;;;;;;;20.32;73.45;99604.00;5094526;28;20047;-76
2021/06/24 01:59:20;;;;;;;51.30;39.08;;;;;;;20.44;73.20;99607.16;5112585;28;20047;-77
2021/06/24 02:02:11;;;;;;;59.78;42.03;;;;;;;20.42;72.84;99598.31;5098085;28;20185;-76
2021/06/24 02:04:47;;;;;;;57.47;44.15;;;;;;;20.39;72.70;99604.13;5079150;28;20070;-77
2021/06/24 02:07:16;;;;;;;61.53;45.55;;;;;;;20.40;73.20;99600.38;5094508;28;20050;-77
2021/06/24 02:10:11;;;;;;;54.55;43.03;;;;;;;20.43;73.03;99599.19;5038655;28;20061;-77
2021/06/24 02:12:45;;;;;;;64.55;49.67;;;;;;;20.48;73.04;99604.91;5094513;28;20056;-77
2021/06/24 02:15:12;;;;;;;67.20;51.53;;;;;;;20.45;72.99;99603.41;5112463;28;20051;-77
2021/06/24 02:17:38;;;;;;;67.38;49.63;;;;;;;20.45;72.90;99602.56;5077470;28;20047;-77
2021/06/24 02:20:11;;;;;;;68.88;49.83;;;;;;;20.58;73.04;99609.13;5077846;28;20035;-76
2021/06/24 02:22:49;;;;;;;63.47;45.53;;;;;;;20.65;72.47;99616.53;5094532;28;20089;-77
2021/06/24 02:25:20;;;;;;;66.00;47.45;;;;;;;20.67;72.43;99611.78;5094259;28;20058;-76
2021/06/24 02:28:05;;;;;;;74.47;50.95;;;;;;;20.68;72.54;99617.00;5113007;28;20043;-76
2021/06/24 02:30:51;;;;;;;63.78;49.47;;;;;;;20.61;72.78;99622.34;5111866;28;20048;-77
2021/06/24 02:33:18;;;;;;;61.40;45.53;;;;;;;20.71;72.64;99618.53;5094553;28;20046;-77
2021/06/24 02:35:55;;;;;;;68.70;48.83;;;;;;;20.92;72.14;99618.72;5094852;28;20051;-77
2021/06/24 02:38:25;;;;;;;71.15;52.90;;;;;;;20.94;71.72;99621.22;5061215;28;20474;-77
2021/06/24 02:40:56;;;;;;;69.35;48.65;;;;;;;20.93;71.71;99623.09;5078703;28;20044;-77
2021/06/24 02:43:25;;;;;;;63.10;47.92;;;;;;;21.09;72.00;99627.56;5094579;28;20149;-82
2021/06/24 02:45:51;;;;;;;63.42;45.72;;;;;;;21.29;71.23;99619.75;5048115;28;20043;-83
2021/06/24 02:48:28;;;;;;;57.13;44.45;;;;;;;21.46;70.36;99634.88;5116447;28;20136;-81
2021/06/24 02:50:54;;;;;;;57.13;44.50;;;;;;;21.56;69.94;99632.75;5098680;28;20050;-83
2021/06/24 02:53:21;;;;;;;62.70;46.38;;;;;;;21.66;69.51;99634.31;5101943;28;20051;-82
2021/06/24 02:55:50;;;;;;;66.38;46.80;;;;;;;21.72;69.17;99634.41;5098055;28;20054;-83
2021/06/24 02:58:22;;;;;;;65.03;46.80;;;;;;;21.67;69.15;99638.75;5098992;28;20043;-86
2021/06/24 03:00:55;;;;;;;61.55;44.45;;;;;;;21.63;69.46;99638.28;5081422;28;20125;-83
2021/06/24 03:03:42;;;;;;;66.85;47.45;;;;;;;21.58;69.26;99638.81;5115910;28;20152;-82
2021/06/24 03:06:25;;;;;;;73.65;53.30;;;;;;;21.56;69.69;99646.34;5080799;28;20047;-84
2021/06/24 03:08:53;;;;;;;67.43;49.80;;;;;;;21.62;69.62;99650.16;5116000;28;20131;-84
2021/06/24 03:11:25;;;;;;;66.53;47.70;;;;;;;21.72;69.66;99644.47;5116431;28;20071;-83
2021/06/24 03:13:53;;;;;;;62.92;44.20;;;;;;;21.82;69.78;99647.75;5097871;28;20049;-80
2021/06/24 03:16:27;;;;;;;61.25;45.17;;;;;;;21.87;68.97;99641.75;5099752;28;20043;-82
2021/06/24 03:18:54;;;;;;;58.22;42.40;;;;;;;21.84;69.08;99659.28;5100938;28;20052;-81
2021/06/24 03:21:22;;;;;;;52.72;37.42;;;;;;;21.85;68.92;99663.69;5118511;28;20497;-82
2021/06/24 03:23:49;;;;;;;53.63;40.00;;;;;;;21.83;69.10;99663.88;5083765;28;20044;-83
2021/06/24 03:26:15;;;;;;;49.05;36.90;;;;;;;21.75;69.02;99655.81;5064509;28;20130;-80
2021/06/24 03:28:43;;;;;;;45.38;33.80;;;;;;;21.85;68.48;99660.97;5097740;28;20516;-86
2021/06/24 03:31:15;;;;;;;39.92;31.83;;;;;;;21.85;68.12;99660.97;5067685;28;20513;-86
2021/06/24 03:33:41;;;;;;;39.65;31.92;;;;;;;21.98;67.44;99671.22;5097413;28;20377;-85
2021/06/24 03:36:08;;;;;;;33.70;27.55;;;;;;;21.97;67.45;99673.09;5097637;28;20125;-84
2021/06/24 03:38:37;;;;;;;36.63;27.67;;;;;;;22.04;66.98;99668.59;5098521;28;20105;-84
2021/06/24 03:41:03;;;;;;;35.20;28.52;;;;;;;22.10;66.91;99668.84;5079488;28;20289;-88
2021/06/24 03:43:29;;;;;;;43.25;29.42;;;;;;;21.98;66.90;99668.50;5097048;28;20379;-81
2021/06/24 03:45:56;;;;;;;34.95;26.98;;;;;;;22.09;67.15;99661.72;5063335;28;20047;-82
2021/06/24 03:48:25;;;;;;;34.17;27.25;;;;;;;22.25;66.36;99669.72;5080302;28;20051;-91
2021/06/24 03:51:02;;;;;;;37.95;26.98;;;;;;;22.35;66.19;99675.72;5094618;28;20048;-82
2021/06/24 03:53:29;;;;;;;37.00;27.33;;;;;;;22.42;66.00;99673.91;5059340;28;20059;-84
2021/06/24 03:55:55;;;;;;;38.33;28.17;;;;;;;22.41;65.41;99672.19;5076092;28;20044;-84
2021/06/24 03:58:41;;;;;;;52.58;30.83;;;;;;;22.37;65.88;99670.91;5078246;28;20048;-84
2021/06/24 04:01:09;;;;;;;46.47;31.42;;;;;;;22.38;65.25;99675.34;5059818;28;20062;-84
2021/06/24 04:03:36;;;;;;;38.20;31.17;;;;;;;22.50;65.38;99678.41;5043376;28;20495;-84
2021/06/24 04:06:06;;;;;;;48.00;32.88;;;;;;;22.54;65.06;99680.53;5094306;28;20048;-85
2021/06/24 04:08:32;;;;;;;43.58;34.00;;;;;;;22.42;65.15;99684.81;5059666;28;20406;-82
2021/06/24 04:10:58;;;;;;;50.88;32.53;;;;;;;22.34;65.06;99682.19;5076393;28;20098;-81
2021/06/24 04:13:24;;;;;;;44.83;31.52;;;;;;;22.50;65.25;99690.13;5075447;28;20443;-84
2021/06/24 04:15:53;;;;;;;42.20;30.35;;;;;;;22.64;65.05;99690.28;5075783;28;20047;-82
2021/06/24 04:18:20;;;;;;;51.67;31.08;;;;;;;22.63;65.60;99691.31;5043245;28;20079;-85
2021/06/24 04:20:48;;;;;;;47.40;28.58;;;;;;;22.80;65.64;99679.16;5094290;28;20043;-82
2021/06/24 04:23:14;;;;;;;40.50;27.48;;;;;;;23.21;64.94;99692.19;5075970;28;20422;-82
2021/06/24 04:25:54;;;;;;;68.47;34.22;;;;;;;23.38;63.18;99690.84;5075574;28;20040;-83
2021/06/24 04:28:21;;;;;;;58.58;34.10;;;;;;;23.12;63.34;99679.69;5076685;28;20088;-82
2021/06/24 04:30:59;;;;;;;63.28;34.40;;;;;;;23.42;63.42;99673.03;5059757;28;20040;-90
2021/06/24 04:33:26;;;;;;;64.32;33.20;;;;;;;23.69;62.70;99675.97;5076275;28;20059;-87
2021/06/24 04:36:14;;;;;;;43.60;28.55;;;;;;;23.79;61.86;99670.19;5093905;28;20044;-84
2021/06/24 04:38:42;;;;;;;58.50;30.75;;;;;;;23.73;62.05;99663.63;5058998;28;20044;-83
2021/06/24 04:41:10;;;;;;;56.08;30.80;;;;;;;23.58;62.34;99668.31;5093775;28;20052;-86
2021/06/24 04:44:05;;;;;;;74.15;29.40;;;;;;;23.64;62.63;99664.81;5080608;28;20102;-84
2021/06/24 04:46:33;;;;;;;56.47;29.30;;;;;;;23.94;62.56;99666.28;5094156;28;20047;-90
2021/06/24 04:49:02;;;;;;;;;;;;;;;24.30;62.13;99667.94;5076286;28;20442;-82
2021/06/24 04:51:51;;;;;;;;;;;;;;;24.51;60.99;99657.94;5083009;28;19927;-84
2021/06/24 04:54:25;;;;;;;52.38;26.90;;;;;;;24.90;60.50;99660.78;5058545;28;20539;-83
2021/06/24 04:56:51;;;;;;;55.88;29.52;;;;;;;25.29;58.59;99661.88;5091052;28;20390;-82
2021/06/24 04:59:23;;;;;;;64.93;28.45;;;;;;;25.22;57.02;99655.56;5058390;28;20043;-82
2021/06/24 05:02:24;;;;;;;53.03;26.90;;;;;;;25.49;57.46;99666.50;5079142;28;20047;-82
2021/06/24 05:05:19;;;;;;;47.67;26.48;;;;;;;25.55;56.67;99665.66;5074672;28;20121;-83
2021/06/24 05:07:45;;;;;;;52.55;27.73;;;;;;;25.49;56.25;99661.03;5092133;28;20056;-82
2021/06/24 05:10:12;;;;;;;56.95;26.10;;;;;;;25.34;56.63;99651.13;5074913;28;20055;-82
2021/06/24 05:12:38;;;;;;;52.78;25.60;;;;;;;25.22;55.36;99657.47;5093948;28;20039;-81
2021/06/24 05:15:04;;;;;;;38.42;20.60;;;;;;;24.94;55.31;99664.78;5093580;28;20047;-82
2021/06/24 05:17:30;;;;;;;31.63;18.40;;;;;;;24.91;54.58;99651.53;5093668;28;20051;-82
2021/06/24 05:19:58;;;;;;;32.47;20.23;;;;;;;24.82;53.89;99660.94;5058999;28;20067;-82
2021/06/24 05:22:25;;;;;;;36.85;20.23;;;;;;;24.66;54.55;99666.81;5058987;28;20032;-83
2021/06/24 05:24:50;;;;;;;46.65;22.98;;;;;;;24.59;54.48;99657.75;5093447;28;20052;-83
2021/06/24 05:27:16;;;;;;;52.28;24.63;;;;;;;24.61;55.43;99658.41;5093626;28;20454;-84
2021/06/24 05:29:42;;;;;;;38.15;18.48;;;;;;;24.79;53.67;99657.81;5093690;28;20075;-82
2021/06/24 05:32:08;;;;;;;27.58;15.98;;;;;;;24.93;53.23;99663.06;5093135;28;20078;-82
2021/06/24 05:34:34;;;;;;;27.33;14.13;;;;;;;24.82;51.80;99660.94;5093378;28;20048;-83
2021/06/24 05:37:01;;;;;;;23.75;13.18;;;;;;;24.70;51.20;99663.44;5093116;28;20142;-83
2021/06/24 05:39:27;;;;;;;18.42;9.93;;;;;;;24.59;48.59;99665.94;5075242;28;20082;-84
2021/06/24 05:41:56;;;;;;;22.05;9.90;;;;;;;24.44;48.51;99653.28;5093093;28;20139;-84
2021/06/24 05:44:25;;;;;;;27.08;10.48;;;;;;;24.51;49.09;99657.94;5092893;28;20048;-84
2021/06/24 05:46:51;;;;;;;17.40;9.55;;;;;;;24.46;48.61;99669.50;5093136;28;20505;-84
2021/06/24 05:49:17;;;;;;;12.88;9.32;;;;;;;24.57;47.44;99668.06;5093154;28;20043;-83
2021/06/24 05:51:43;;;;;;;8.40;7.55;;;;;;;24.47;46.95;99682.94;5075003;28;20055;-85
2021/06/24 05:54:09;;;;;;;12.05;7.60;;;;;;;24.56;46.61;99671.81;5093037;28;20104;-84
2021/06/24 05:56:35;;;;;;;13.00;7.68;;;;;;;24.60;47.38;99667.66;5093203;28;20070;-83
2021/06/24 05:59:03;;;;;;;12.65;9.20;;;;;;;24.81;47.33;99670.22;5092900;28;20051;-84
2021/06/24 06:01:29;;;;;;;24.83;9.23;;;;;;;25.00;47.15;99673.19;5092947;28;20403;-84
2021/06/24 06:03:55;;;;;;;13.95;9.32;;;;;;;24.92;46.98;99693.38;5092440;28;20048;-85
2021/06/24 06:06:21;;;;;;;37.85;9.15;;;;;;;24.92;47.94;99688.75;5092917;28;20075;-84
2021/06/24 06:08:47;;;;;;;10.18;8.18;;;;;;;25.22;47.21;99691.13;5093080;28;20040;-83
2021/06/24 06:11:13;;;;;;;12.10;10.30;;;;;;;25.21;45.52;99686.72;5093104;28;20074;-85
2021/06/24 06:13:39;;;;;;;15.60;9.65;;;;;;;25.26;45.59;99689.66;5074659;28;20043;-84
2021/06/24 06:16:05;;;;;;;15.05;10.18;;;;;;;25.47;46.14;99696.84;5092816;28;20131;-83
2021/06/24 06:18:31;;;;;;;15.23;12.15;;;;;;;25.64;44.12;99687.13;5093926;28;20079;-85
2021/06/24 06:20:57;;;;;;;13.90;11.65;;;;;;;25.38;43.60;99693.44;5099920;28;20482;-85
2021/06/24 06:23:24;;;;;;;19.98;13.45;;;;;;;25.55;44.21;99682.94;5097362;28;20092;-84
2021/06/24 06:25:50;;;;;;;20.23;15.27;;;;;;;25.57;43.99;99688.19;5097593;28;20040;-85
2021/06/24 06:28:17;;;;;;;14.63;13.13;;;;;;;25.71;44.13;99689.84;5085140;28;20123;-86
2021/06/24 06:30:44;;;;;;;17.10;13.90;;;;;;;25.95;44.20;99693.00;5099370;28;20039;-86
2021/06/24 06:33:10;;;;;;;14.05;11.05;;;;;;;26.04;42.39;99689.00;5097882;28;20468;-86
2021/06/24 06:35:37;;;;;;;16.48;12.95;;;;;;;26.18;42.72;99679.69;5078997;28;20067;-85
2021/06/24 06:38:03;;;;;;;13.70;11.80;;;;;;;26.09;41.96;99680.94;5062189;28;20065;-85
2021/06/24 06:40:29;;;;;;;13.70;11.02;;;;;;;26.17;41.50;99691.69;5061856;28;20051;-85
2021/06/24 06:42:55;;;;;;;13.23;11.93;;;;;;;25.98;41.74;99681.63;5096442;28;20455;-85
2021/06/24 06:45:22;;;;;;;18.92;12.52;;;;;;;26.06;42.70;99679.47;5078448;28;20044;-85
2021/06/24 06:47:48;;;;;;;13.65;12.13;;;;;;;26.30;42.93;99691.63;5098505;28;20055;-86
2021/06/24 06:50:14;;;;;;;13.68;11.18;;;;;;;26.46;43.54;99678.53;5097663;28;20040;-86
2021/06/24 06:52:41;;;;;;;18.15;12.73;;;;;;;26.42;43.26;99675.34;5077775;28;20397;-86
2021/06/24 06:55:07;;;;;;;14.52;12.77;;;;;;;26.70;43.56;99679.66;5078254;28;20405;-85
2021/06/24 06:57:34;;;;;;;13.18;11.77;;;;;;;26.78;43.04;99685.75;5096047;28;20040;-86
2021/06/24 07:00:00;;;;;;;13.07;11.73;;;;;;;26.70;43.41;99686.00;5096004;28;20048;-85
2021/06/24 07:02:26;;;;;;;12.20;10.90;;;;;;;26.82;43.25;99675.19;5095903;28;20039;-86
2021/06/24 07:04:52;;;;;;;18.55;11.55;;;;;;;26.98;43.89;99679.31;5078239;28;20480;-86
2021/06/24 07:07:19;;;;;;;19.73;12.20;;;;;;;27.23;43.92;99677.47;5094429;28;20055;-86
2021/06/24 07:09:46;;;;;;;16.73;13.82;;;;;;;27.33;43.95;99668.72;5077558;28;20055;-86
2021/06/24 07:12:12;;;;;;;14.77;9.63;;;;;;;27.41;42.69;99684.91;5095602;28;20105;-88
2021/06/24 07:14:38;;;;;;;11.93;9.27;;;;;;;27.11;42.27;99688.28;5095593;28;20044;-87
2021/06/24 07:17:04;;;;;;;11.68;9.38;;;;;;;26.99;43.04;99690.03;5097562;28;20043;-86
2021/06/24 07:19:30;;;;;;;12.15;10.63;;;;;;;27.08;43.02;99682.38;5077530;28;20143;-85
2021/06/24 07:21:56;;;;;;;15.13;12.40;;;;;;;27.17;43.11;99663.78;5027612;28;20121;-85
2021/06/24 07:24:22;;;;;;;17.77;14.27;;;;;;;27.20;43.01;99679.81;5044883;28;20044;-86
2021/06/24 07:26:48;;;;;;;15.65;10.80;;;;;;;26.85;42.38;99678.34;5061359;28;20163;-86
2021/06/24 07:29:14;;;;;;;16.20;10.80;;;;;;;26.66;43.31;99676.53;5095476;28;20407;-86
2021/06/24 07:31:40;;;;;;;15.13;9.85;;;;;;;26.35;43.37;99672.63;5076496;28;20044;-86
2021/06/24 07:34:06;;;;;;;17.80;10.40;;;;;;;26.63;43.41;99671.50;5060521;28;20101;-86
2021/06/24 07:36:32;;;;;;;10.65;9.52;;;;;;;26.80;42.69;99675.38;5095229;28;20154;-87
2021/06/24 07:38:58;;;;;;;15.55;10.68;;;;;;;26.57;43.18;99672.38;5095158;28;20066;-87
2021/06/24 07:41:27;;;;;;;12.38;10.68;;;;;;;26.84;42.61;99675.78;5096872;28;20122;-91
2021/06/24 07:43:53;;;;;;;14.05;11.35;;;;;;;27.26;42.39;99663.28;5097466;28;20609;-89
2021/06/24 07:46:20;;;;;;;16.15;11.38;;;;;;;27.47;42.33;99664.78;5069802;28;20360;-87
2021/06/24 07:48:49;;;;;;;14.82;9.20;;;;;;;27.69;41.33;99667.97;5093784;28;20098;-87
2021/06/24 07:51:14;;;;;;;;;;;;;;;27.80;40.37;99666.41;5106276;28;20036;-90
2021/06/24 07:53:43;;;;;;;15.07;9.73;;;;;;;27.50;40.00;99672.59;5080158;28;20404;-90
2021/06/24 07:56:09;;;;;;;;;;;;;;;27.36;40.81;99669.09;5117812;28;20248;-93
2021/06/24 07:58:36;;;;;;;12.82;9.23;;;;;;;27.47;41.01;99667.53;5116778;28;19915;-85
2021/06/24 08:01:02;;;;;;;11.35;9.48;;;;;;;27.76;40.86;99657.78;5099109;28;20073;-85
2021/06/24 08:03:28;;;;;;;15.45;9.88;;;;;;;28.23;40.52;99655.34;5098514;28;20068;-82
2021/06/24 08:05:54;;;;;;;13.32;9.93;;;;;;;28.69;39.78;99642.91;5115386;28;20046;-86
2021/06/24 08:08:20;;;;;;;13.23;9.55;;;;;;;28.58;38.96;99654.69;5080216;28;20047;-82
2021/06/24 08:10:47;;;;;;;15.93;11.73;;;;;;;28.44;39.24;99653.22;5097278;28;20063;-84
2021/06/24 08:13:12;;;;;;;15.23;12.75;;;;;;;28.22;39.65;99650.09;5097429;28;20558;-82
2021/06/24 08:15:38;;;;;;;15.38;12.10;;;;;;;28.56;39.65;99646.69;5115078;28;20126;-85
2021/06/24 08:18:04;;;;;;;16.80;11.10;;;;;;;28.78;39.24;99635.19;5097158;28;20332;-83
2021/06/24 08:20:30;;;;;;;12.73;9.23;;;;;;;28.87;38.85;99638.44;5114527;28;20043;-81
2021/06/24 08:22:56;;;;;;;12.13;10.20;;;;;;;28.99;37.92;99647.59;5079800;28;20558;-84
2021/06/24 08:25:22;;;;;;;13.63;10.02;;;;;;;28.61;38.66;99645.16;5114805;28;20044;-86
2021/06/24 08:27:50;;;;;;;11.93;9.90;;;;;;;28.86;39.04;99634.00;5080237;28;20075;-88
2021/06/24 08:30:16;;;;;;;12.15;9.93;;;;;;;28.95;38.20;99627.91;5080713;28;20066;-86
2021/06/24 08:32:42;;;;;;;9.95;7.78;;;;;;;28.76;38.36;99646.41;5097107;28;20075;-88
2021/06/24 08:35:09;;;;;;;8.98;7.30;;;;;;;28.28;39.41;99641.75;5097073;28;20063;-91
2021/06/24 08:37:39;;;;;;;11.27;7.65;;;;;;;28.21;39.06;99651.13;5115008;28;20044;-85
2021/06/24 08:40:09;;;;;;;8.82;7.93;;;;;;;28.18;38.67;99630.47;5096241;28;20052;-86
2021/06/24 08:42:35;;;;;;;13.07;8.52;;;;;;;28.18;39.47;99632.38;5062160;28;20043;-84
2021/06/24 08:45:02;;;;;;;12.48;9.15;;;;;;;28.56;39.89;99616.44;5096525;28;20089;-87
2021/06/24 08:47:30;;;;;;;13.95;9.15;;;;;;;29.12;38.50;99611.59;5081154;28;20048;-86
2021/06/24 08:49:59;;;;;;;11.23;8.55;;;;;;;29.74;38.01;99605.63;5114664;28;20044;-87
2021/06/24 08:52:26;;;;;;;15.70;8.93;;;;;;;30.09;37.12;99613.84;5079778;28;20083;-79
2021/06/24 08:54:53;;;;;;;13.15;8.52;;;;;;;30.34;36.31;99607.19;5077708;28;20047;-81
2021/06/24 08:57:19;;;;;;;10.50;8.55;;;;;;;30.35;35.82;99600.59;5062490;28;20035;-82
2021/06/24 08:59:45;;;;;;;10.30;8.52;;;;;;;30.38;35.77;99597.34;5095078;28;20488;-85
2021/06/24 09:02:15;;;;;;;14.27;9.23;;;;;;;30.41;35.24;99596.84;5113476;28;20044;-85
2021/06/24 09:04:46;;;;;;;9.90;7.80;;;;;;;30.60;34.97;99601.09;5079593;28;20509;-87
2021/06/24 09:07:14;;;;;;;12.38;7.15;;;;;;;30.43;34.20;99611.25;5079085;28;20047;-83
2021/06/24 09:09:56;;;;;;;10.57;8.45;;;;;;;30.41;34.58;99618.94;5080755;28;20044;-91
2021/06/24 09:12:23;;;;;;;12.27;9.65;;;;;;;30.09;35.30;99605.59;5097767;28;20048;-85
2021/06/24 09:14:50;;;;;;;8.98;8.10;;;;;;;29.94;35.93;99600.59;5094942;28;20047;-84
2021/06/24 09:17:42;;;;;;;8.18;6.60;;;;;;;30.02;36.29;99601.28;5113356;28;20047;-83
2021/06/24 09:20:23;;;;;;;9.20;7.15;;;;;;;30.33;35.86;99600.84;5095343;28;20486;-87
2021/06/24 09:23:11;;;;;;;17.65;7.55;;;;;;;30.31;35.47;99591.13;5113499;28;20040;-86
2021/06/24 09:25:41;;;;;;;8.48;7.50;;;;;;;30.06;35.27;99603.31;5113695;28;20039;-86
2021/06/24 09:28:09;;;;;;;10.52;7.90;;;;;;;30.22;35.20;99583.25;5062381;28;20039;-89
2021/06/24 09:30:36;;;;;;;7.93;6.95;;;;;;;30.66;34.34;99596.50;5094815;28;20035;-85
2021/06/24 09:33:12;;;;;;;9.30;6.85;;;;;;;30.61;34.02;99591.72;5112210;28;20395;-86
2021/06/24 09:35:39;;;;;;;11.20;6.28;;;;;;;30.83;34.46;99593.78;5113116;28;20062;-85
2021/06/24 09:38:15;;;;;;;9.18;6.88;;;;;;;31.03;33.81;99596.06;5113021;28;20513;-85
2021/06/24 09:40:44;;;;;;;8.77;7.22;;;;;;;31.32;33.02;99608.72;5113045;28;20048;-86
2021/06/24 09:43:28;;;;;;;13.98;6.70;;;;;;;31.52;32.63;99602.69;5112910;28;20058;-83
2021/06/24 09:46:02;;;;;;;8.25;6.82;;;;;;;31.32;32.60;99607.88;5094588;28;20044;-86
2021/06/24 09:48:36;;;;;;;12.43;7.80;;;;;;;30.97;32.90;99584.09;5078345;28;20417;-87
2021/06/24 09:51:18;;;;;;;13.25;7.80;;;;;;;31.44;32.72;99589.28;5113045;28;20067;-86
2021/06/24 09:53:47;;;;;;;10.82;7.18;;;;;;;32.07;32.51;99593.50;5112308;28;20051;-86
2021/06/24 09:56:20;;;;;;;9.40;7.40;;;;;;;32.63;31.66;99577.56;5094774;28;20047;-83
2021/06/24 09:58:47;;;;;;;9.70;6.35;;;;;;;33.00;31.34;99565.72;5077981;28;20086;-82
2021/06/24 10:01:32;;;;;;;11.30;6.53;;;;;;;33.01;30.33;99581.25;5095140;28;20046;-85
2021/06/24 10:03:59;;;;;;;11.38;6.30;;;;;;;32.85;30.22;99571.13;5074884;28;20298;-87
2021/06/24 10:06:26;;;;;;;9.80;6.32;;;;;;;32.55;30.55;99572.50;5091343;28;20560;-89
2021/06/24 10:08:52;;;;;;;7.95;6.10;;;;;;;32.10;30.98;99570.03;5091523;28;20040;-87
2021/06/24 10:11:19;;;;;;;7.78;5.80;;;;;;;32.26;30.82;99579.34;5074723;28;20051;-84
2021/06/24 10:13:45;;;;;;;6.80;5.85;;;;;;;32.31;31.45;99571.09;5074386;28;20038;-90
2021/06/24 10:16:11;;;;;;;6.47;5.88;;;;;;;32.93;29.64;99572.56;5095556;28;20095;-89
2021/06/24 10:18:37;;;;;;;6.60;5.60;;;;;;;33.62;29.55;99569.78;5092753;28;20040;-85
2021/06/24 10:21:04;;;;;;;8.38;6.38;;;;;;;33.62;28.10;99552.31;5075090;28;20043;-87
2021/06/24 10:23:30;;;;;;;10.88;6.13;;;;;;;34.00;28.56;99557.53;5073536;28;20168;-88
2021/06/24 10:25:56;;;;;;;7.30;6.07;;;;;;;34.03;28.20;99565.28;5091944;28;20048;-88
2021/06/24 10:28:23;;;;;;;9.85;5.63;;;;;;;33.78;28.69;99560.44;5094141;28;20392;-87
2021/06/24 10:30:49;;;;;;;7.40;6.28;;;;;;;33.95;28.90;99557.47;5092629;28;20077;-88
2021/06/24 10:33:16;;;;;;;8.25;5.70;;;;;;;34.77;28.56;99566.03;5101803;28;20048;-87
2021/06/24 10:35:48;;;;;;;6.85;5.55;;;;;;;34.23;28.25;99566.47;5104448;28;20043;-87
2021/06/24 10:38:14;;;;;;;11.52;4.90;;;;;;;34.67;28.56;99561.31;5097523;28;20040;-86
2021/06/24 10:40:44;;;;;;;8.15;4.90;;;;;;;34.86;27.16;99571.88;5091546;28;20078;-83
2021/06/24 10:43:14;;;;;;;8.20;4.88;;;;;;;34.82;27.91;99566.03;5092316;28;20044;-85
2021/06/24 10:45:42;;;;;;;4.68;4.20;;;;;;;35.45;26.87;99563.78;5075097;28;20490;-91
2021/06/24 10:48:27;;;;;;;5.60;3.60;;;;;;;35.84;23.86;99560.38;5059690;28;20032;-89
2021/06/24 10:50:57;;;;;;;5.25;4.75;;;;;;;34.33;25.80;99575.66;5074406;28;20332;-87
2021/06/24 10:53:23;;;;;;;4.72;4.22;;;;;;;34.01;26.74;99573.06;5090457;28;20126;-89
2021/06/24 10:55:52;;;;;;;5.68;4.15;;;;;;;34.16;26.59;99569.50;5092725;28;20477;-87
2021/06/24 10:58:18;;;;;;;6.03;4.40;;;;;;;34.68;26.36;99571.31;5093109;28;20071;-91
2021/06/24 11:00:47;;;;;;;5.00;4.32;;;;;;;35.11;25.40;99579.41;5092109;28;20093;-89
2021/06/24 11:03:18;;;;;;;6.72;4.35;;;;;;;34.83;25.83;99572.44;5091648;28;20109;-87
2021/06/24 11:05:48;;;;;;;5.28;4.30;;;;;;;35.55;25.33;99567.72;5076061;28;20044;-86
2021/06/24 11:08:15;;;;;;;4.45;4.05;;;;;;;35.87;25.14;99562.59;5094803;28;20048;-88
2021/06/24 11:11:00;;;;;;;4.68;4.15;;;;;;;36.59;24.55;99565.88;5077887;28;20086;-87
2021/06/24 11:13:39;;;;;;;5.10;4.05;;;;;;;36.81;23.71;99561.81;5094717;28;20048;-87
2021/06/24 11:16:10;;;;;;;5.20;4.00;;;;;;;36.24;22.83;99564.94;5095939;28;20044;-87
2021/06/24 11:18:36;;;;;;;5.28;4.22;;;;;;;36.62;22.70;99570.03;5094683;28;20127;-87
2021/06/24 11:21:10;;;;;;;4.28;3.88;;;;;;;37.20;21.95;99556.22;5095579;28;20044;-88
2021/06/24 11:23:37;;;;;;;4.40;3.92;;;;;;;37.43;21.06;99555.44;5095128;28;20576;-87
2021/06/24 11:26:08;;;;;;;6.03;4.20;;;;;;;36.88;21.51;99548.38;5096244;28;20048;-86
2021/06/24 11:28:44;;;;;;;7.07;3.97;;;;;;;36.41;21.61;99560.94;5063440;28;20064;-87
2021/06/24 11:31:11;;;;;;;4.35;3.63;;;;;;;36.83;21.67;99552.06;5095781;28;20040;-87